createdAt,value
2019-05-20T00:00:40.702Z,14.14
2019-05-20T00:03:09.153Z,14.07
2019-05-20T00:05:37.639Z,14.02
2019-05-20T00:08:06.052Z,14.09
2019-05-20T00:10:34.485Z,13.98
2019-05-20T00:13:02.922Z,13.97
2019-05-20T00:15:31.336Z,13.85
2019-05-20T00:18:01.291Z,13.86
2019-05-20T00:20:29.714Z,13.90
2019-05-20T00:22:58.139Z,13.83
2019-05-20T00:25:27.614Z,13.72
2019-05-20T00:27:56.032Z,13.62
2019-05-20T00:30:24.454Z,13.68
2019-05-20T00:32:52.872Z,13.68
2019-05-20T00:35:21.329Z,13.65
2019-05-20T00:37:49.730Z,13.62
2019-05-20T00:40:18.160Z,13.58
2019-05-20T00:42:46.658Z,13.54
2019-05-20T00:45:16.692Z,13.56
2019-05-20T00:47:45.176Z,13.63
2019-05-20T00:50:13.907Z,13.64
2019-05-20T00:52:42.277Z,13.57
2019-05-20T00:55:16.194Z,13.64
2019-05-20T00:57:44.648Z,13.62
2019-05-20T01:00:13.295Z,13.69
2019-05-20T01:02:55.803Z,13.66
2019-05-20T01:05:11.862Z,13.51
2019-05-20T01:07:40.310Z,13.51
2019-05-20T01:10:08.820Z,13.55
2019-05-20T01:12:37.362Z,13.52
2019-05-20T01:15:06.890Z,13.49
2019-05-20T01:17:35.372Z,13.43
2019-05-20T01:20:06.608Z,13.51
2019-05-20T01:22:35.730Z,13.33
2019-05-20T01:25:06.004Z,13.40
2019-05-20T01:27:35.904Z,13.32
2019-05-20T01:30:06.591Z,13.30
2019-05-20T01:32:35.125Z,13.30
2019-05-20T01:35:03.916Z,13.24
2019-05-20T01:37:32.461Z,13.24
2019-05-20T01:40:00.906Z,13.05
2019-05-20T01:42:29.352Z,13.07
2019-05-20T01:44:57.772Z,13.09
2019-05-20T01:47:26.192Z,13.13
2019-05-20T01:49:54.680Z,13.09
2019-05-20T01:52:23.110Z,13.00
2019-05-20T01:54:51.554Z,12.92
2019-05-20T01:57:20.024Z,12.91
2019-05-20T01:59:48.455Z,12.76
2019-05-20T02:02:16.879Z,12.73
2019-05-20T02:04:45.301Z,12.78
2019-05-20T02:07:13.813Z,12.81
2019-05-20T02:09:42.268Z,12.71
2019-05-20T02:12:10.669Z,12.70
2019-05-20T02:14:40.736Z,12.57
2019-05-20T02:17:09.318Z,12.53
2019-05-20T02:19:37.786Z,12.50
2019-05-20T02:22:06.230Z,12.56
2019-05-20T02:24:37.840Z,12.59
2019-05-20T02:27:06.290Z,12.54
2019-05-20T02:29:34.733Z,12.41
2019-05-20T02:32:03.157Z,12.36
2019-05-20T02:34:31.588Z,12.45
2019-05-20T02:37:00.026Z,12.55
2019-05-20T02:39:28.438Z,12.55
2019-05-20T02:41:56.893Z,12.30
2019-05-20T02:44:25.321Z,12.33
2019-05-20T02:46:53.779Z,12.39
2019-05-20T02:49:22.216Z,12.38
2019-05-20T02:51:51.229Z,12.41
2019-05-20T02:54:19.669Z,12.39
2019-05-20T02:56:48.100Z,12.30
2019-05-20T02:59:16.512Z,12.33
2019-05-20T03:01:44.939Z,12.47
2019-05-20T03:04:13.463Z,12.48
2019-05-20T03:06:41.918Z,12.35
2019-05-20T03:09:12.380Z,12.37
2019-05-20T03:11:44.037Z,12.37
2019-05-20T03:14:12.452Z,12.37
2019-05-20T03:16:42.954Z,12.26
2019-05-20T03:19:11.408Z,12.19
2019-05-20T03:21:39.842Z,12.14
2019-05-20T03:24:08.283Z,12.15
2019-05-20T03:26:36.775Z,12.19
2019-05-20T03:29:05.289Z,12.20
2019-05-20T03:31:33.758Z,12.34
2019-05-20T03:34:02.189Z,12.26
2019-05-20T03:36:30.619Z,12.32
2019-05-20T03:38:59.040Z,12.27
2019-05-20T03:41:27.466Z,12.36
2019-05-20T03:43:56.171Z,12.39
2019-05-20T03:46:24.629Z,12.31
2019-05-20T03:48:53.138Z,12.35
2019-05-20T03:51:21.580Z,12.37
2019-05-20T03:53:50.002Z,12.40
2019-05-20T03:56:18.484Z,12.40
2019-05-20T03:58:46.871Z,12.44
2019-05-20T04:01:15.291Z,12.52
2019-05-20T04:03:43.772Z,12.43
2019-05-20T04:06:12.187Z,12.45
2019-05-20T04:08:40.668Z,12.41
2019-05-20T04:11:09.147Z,12.34
2019-05-20T04:13:37.609Z,12.30
2019-05-20T04:16:06.085Z,12.29
2019-05-20T04:18:34.537Z,12.30
2019-05-20T04:21:03.132Z,12.34
2019-05-20T04:23:31.633Z,12.37
2019-05-20T04:26:00.054Z,12.40
2019-05-20T04:28:28.537Z,12.34
2019-05-20T04:30:56.985Z,12.49
2019-05-20T04:33:25.432Z,12.57
2019-05-20T04:35:53.848Z,12.55
2019-05-20T04:38:22.280Z,12.70
2019-05-20T04:40:52.323Z,12.79
2019-05-20T04:43:20.845Z,12.83
2019-05-20T04:45:49.284Z,12.80
2019-05-20T04:48:17.813Z,12.88
2019-05-20T04:50:46.251Z,12.98
2019-05-20T04:53:14.675Z,12.98
2019-05-20T04:55:43.167Z,12.98
2019-05-20T04:58:11.633Z,13.15
2019-05-20T05:00:48.611Z,13.21
2019-05-20T05:03:17.092Z,13.39
2019-05-20T05:05:45.539Z,13.39
2019-05-20T05:08:14.122Z,13.51
2019-05-20T05:10:42.693Z,13.69
2019-05-20T05:13:11.208Z,13.53
2019-05-20T05:15:39.673Z,13.46
2019-05-20T05:18:08.287Z,13.40
2019-05-20T05:20:36.783Z,13.74
2019-05-20T05:23:05.279Z,13.70
2019-05-20T05:25:35.610Z,13.75
2019-05-20T05:28:04.941Z,13.74
2019-05-20T05:30:35.260Z,13.82
2019-05-20T05:33:03.807Z,13.68
2019-05-20T05:35:32.266Z,13.51
2019-05-20T05:38:00.847Z,13.47
2019-05-20T05:40:30.814Z,13.48
2019-05-20T05:42:59.281Z,13.44
2019-05-20T05:45:32.279Z,13.40
2019-05-20T05:48:01.581Z,13.54
2019-05-20T05:50:30.575Z,13.61
2019-05-20T05:52:59.605Z,13.64
2019-05-20T05:55:28.157Z,13.44
2019-05-20T05:57:56.660Z,13.75
2019-05-20T06:00:26.826Z,13.76
2019-05-20T06:02:55.371Z,13.69
2019-05-20T06:05:23.951Z,13.86
2019-05-20T06:07:53.255Z,13.85
2019-05-20T06:10:22.253Z,13.82
2019-05-20T06:12:50.700Z,13.73
2019-05-20T06:15:19.728Z,13.70
2019-05-20T06:17:48.205Z,13.71
2019-05-20T06:20:17.317Z,13.98
2019-05-20T06:22:45.779Z,13.93
2019-05-20T06:25:14.757Z,13.95
2019-05-20T06:27:46.331Z,13.84
2019-05-20T06:30:15.538Z,13.72
2019-05-20T06:32:44.078Z,13.81
2019-05-20T06:35:14.367Z,13.98
2019-05-20T06:37:47.533Z,13.92
2019-05-20T06:40:19.358Z,13.72
2019-05-20T06:42:47.874Z,13.92
2019-05-20T06:45:16.498Z,13.68
2019-05-20T06:47:45.135Z,14.18
2019-05-20T06:50:15.355Z,14.29
2019-05-20T06:52:45.367Z,14.37
2019-05-20T06:55:14.845Z,14.35
2019-05-20T06:57:43.354Z,14.17
2019-05-20T07:00:12.870Z,13.87
2019-05-20T07:02:41.351Z,13.76
2019-05-20T07:05:12.877Z,13.70
2019-05-20T07:07:41.404Z,14.12
2019-05-20T07:10:10.196Z,14.22
2019-05-20T07:12:41.548Z,14.10
2019-05-20T07:15:09.272Z,14.01
2019-05-20T07:17:39.411Z,14.01
2019-05-20T07:20:08.358Z,13.93
2019-05-20T07:22:54.518Z,14.10
2019-05-20T07:25:07.530Z,14.09
2019-05-20T07:27:36.004Z,14.13
2019-05-20T07:30:05.808Z,13.84
2019-05-20T07:32:34.357Z,14.25
2019-05-20T07:35:02.985Z,14.17
2019-05-20T07:37:31.543Z,14.23
2019-05-20T07:40:00.029Z,14.24
2019-05-20T07:42:28.547Z,14.24
2019-05-20T07:44:57.072Z,14.40
2019-05-20T07:47:25.795Z,14.31
2019-05-20T07:49:54.541Z,14.27
2019-05-20T07:52:25.542Z,14.33
2019-05-20T07:54:56.307Z,14.10
2019-05-20T07:57:27.878Z,14.26
2019-05-20T07:59:58.059Z,14.19
2019-05-20T08:02:27.223Z,14.53
2019-05-20T08:05:03.863Z,14.61
2019-05-20T08:07:51.331Z,14.44
2019-05-20T08:10:44.015Z,14.43
2019-05-20T08:13:31.796Z,14.38
2019-05-20T08:16:02.856Z,14.34
2019-05-20T08:18:47.626Z,14.28
2019-05-20T08:21:17.711Z,14.44
2019-05-20T08:23:49.578Z,14.72
2019-05-20T08:26:16.438Z,14.57
2019-05-20T08:28:47.928Z,14.87
2019-05-20T08:31:16.368Z,14.84
2019-05-20T08:33:45.058Z,15.04
2019-05-20T08:36:13.577Z,14.94
2019-05-20T08:38:42.059Z,14.99
2019-05-20T08:41:10.652Z,15.13
2019-05-20T08:43:39.219Z,15.27
2019-05-20T08:46:07.794Z,15.16
2019-05-20T08:48:37.871Z,15.27
2019-05-20T08:51:06.458Z,15.24
2019-05-20T08:53:34.908Z,15.22
2019-05-20T08:56:09.224Z,15.08
2019-05-20T08:58:37.870Z,15.18
2019-05-20T09:01:11.957Z,15.15
2019-05-20T09:03:39.216Z,15.22
2019-05-20T09:06:09.264Z,15.43
2019-05-20T09:08:37.802Z,15.54
2019-05-20T09:11:06.294Z,15.72
2019-05-20T09:13:39.767Z,15.79
2019-05-20T09:16:08.436Z,15.87
2019-05-20T09:18:44.228Z,16.04
2019-05-20T09:21:20.531Z,16.09
2019-05-20T09:23:54.348Z,16.17
2019-05-20T09:26:26.967Z,16.24
2019-05-20T09:28:55.496Z,16.53
2019-05-20T09:31:27.210Z,16.59
2019-05-20T09:33:58.580Z,16.67
2019-05-20T09:36:42.438Z,16.60
2019-05-20T09:39:18.721Z,16.54
2019-05-20T09:41:47.235Z,16.48
2019-05-20T09:44:15.669Z,16.71
2019-05-20T09:46:44.176Z,17.20
2019-05-20T09:49:12.602Z,17.18
2019-05-20T09:51:41.063Z,17.21
2019-05-20T09:54:09.479Z,17.23
2019-05-20T09:56:37.967Z,17.54
2019-05-20T09:59:06.488Z,17.51
2019-05-20T10:01:39.426Z,17.24
2019-05-20T10:04:05.136Z,17.22
2019-05-20T10:06:33.621Z,17.02
2019-05-20T10:09:02.063Z,16.91
2019-05-20T10:11:30.532Z,16.98
2019-05-20T10:13:58.968Z,17.15
2019-05-20T10:16:27.470Z,17.46
2019-05-20T10:18:56.018Z,17.41
2019-05-20T10:21:24.592Z,17.33
2019-05-20T10:23:53.047Z,17.68
2019-05-20T10:26:21.773Z,17.96
2019-05-20T10:28:50.314Z,18.06
2019-05-20T10:31:18.756Z,17.70
2019-05-20T10:33:48.944Z,17.53
2019-05-20T10:36:17.390Z,17.48
2019-05-20T10:38:57.331Z,17.59
2019-05-20T10:41:16.008Z,17.73
2019-05-20T10:43:46.142Z,17.79
2019-05-20T10:46:14.459Z,17.77
2019-05-20T10:48:42.909Z,18.01
2019-05-20T10:51:11.413Z,18.07
2019-05-20T10:53:39.974Z,17.88
2019-05-20T10:56:08.462Z,17.94
2019-05-20T10:58:36.905Z,18.18
2019-05-20T11:01:05.370Z,18.20
2019-05-20T11:03:33.814Z,18.39
2019-05-20T11:06:02.327Z,18.38
2019-05-20T11:08:30.776Z,18.62
2019-05-20T11:10:59.211Z,18.88
2019-05-20T11:13:27.660Z,18.66
2019-05-20T11:15:56.097Z,18.96
2019-05-20T11:18:24.544Z,19.14
2019-05-20T11:20:52.967Z,19.11
2019-05-20T11:23:21.393Z,19.27
2019-05-20T11:25:49.822Z,19.13
2019-05-20T11:28:18.245Z,19.22
2019-05-20T11:30:46.768Z,19.25
2019-05-20T11:33:15.233Z,19.12
2019-05-20T11:35:43.620Z,19.09
2019-05-20T11:38:12.137Z,19.09
2019-05-20T11:40:40.530Z,19.35
2019-05-20T11:43:08.985Z,19.52
2019-05-20T11:45:37.372Z,19.29
2019-05-20T11:48:05.805Z,19.60
2019-05-20T11:50:34.216Z,19.71
2019-05-20T11:53:02.663Z,20.06
2019-05-20T11:55:31.112Z,20.00
2019-05-20T11:58:14.635Z,21.05
2019-05-20T12:00:29.951Z,21.14
2019-05-20T12:02:58.396Z,20.53
2019-05-20T12:05:26.802Z,20.62
2019-05-20T12:07:55.238Z,20.54
2019-05-20T12:10:23.654Z,20.71
2019-05-20T12:12:52.265Z,20.94
2019-05-20T12:15:20.643Z,21.50
2019-05-20T12:17:49.071Z,21.43
2019-05-20T12:20:17.826Z,21.66
2019-05-20T12:22:46.274Z,21.32
2019-05-20T12:25:15.142Z,21.01
2019-05-20T12:27:43.593Z,21.37
2019-05-20T12:30:12.346Z,21.48
2019-05-20T12:32:40.749Z,21.45
2019-05-20T12:35:09.556Z,20.94
2019-05-20T12:37:37.955Z,20.98
2019-05-20T12:40:08.379Z,21.18
2019-05-20T12:42:36.395Z,22.00
2019-05-20T12:45:09.635Z,21.59
2019-05-20T12:47:38.127Z,21.16
2019-05-20T12:50:06.996Z,21.19
2019-05-20T12:52:35.549Z,21.16
2019-05-20T12:55:08.580Z,21.07
2019-05-20T12:57:35.012Z,22.00
2019-05-20T13:00:07.789Z,22.54
2019-05-20T13:02:36.436Z,22.20
2019-05-20T13:05:07.908Z,21.94
2019-05-20T13:07:36.298Z,21.81
2019-05-20T13:10:26.959Z,21.68
2019-05-20T13:12:39.745Z,21.44
2019-05-20T13:15:10.254Z,21.50
2019-05-20T13:17:43.893Z,21.32
2019-05-20T13:20:09.280Z,21.17
2019-05-20T13:22:37.701Z,21.24
2019-05-20T13:25:07.713Z,21.55
2019-05-20T13:27:36.137Z,22.08
2019-05-20T13:30:06.587Z,22.20
2019-05-20T13:32:35.013Z,21.94
2019-05-20T13:35:04.186Z,22.28
2019-05-20T13:37:32.593Z,22.54
2019-05-20T13:40:03.123Z,22.22
2019-05-20T13:42:31.201Z,21.95
2019-05-20T13:44:59.628Z,22.00
2019-05-20T13:47:28.058Z,21.81
2019-05-20T13:49:56.516Z,21.35
2019-05-20T13:52:26.491Z,21.18
2019-05-20T13:54:54.898Z,21.38
2019-05-20T13:57:23.313Z,21.45
2019-05-20T13:59:51.744Z,21.13
2019-05-20T14:02:20.157Z,21.24
2019-05-20T14:04:49.751Z,21.42
2019-05-20T14:07:18.171Z,21.63
2019-05-20T14:09:46.616Z,21.60
2019-05-20T14:12:15.010Z,21.32
2019-05-20T14:14:43.518Z,21.59
2019-05-20T14:17:11.926Z,21.59
2019-05-20T14:19:40.359Z,21.37
2019-05-20T14:22:08.774Z,21.52
2019-05-20T14:24:37.229Z,21.73
2019-05-20T14:27:05.725Z,21.51
2019-05-20T14:29:34.157Z,21.72
2019-05-20T14:32:02.956Z,21.87
2019-05-20T14:34:31.608Z,21.82
2019-05-20T14:37:00.016Z,21.91
2019-05-20T14:39:28.454Z,22.00
2019-05-20T14:41:56.890Z,21.84
2019-05-20T14:44:25.313Z,21.40
2019-05-20T14:46:53.733Z,21.65
2019-05-20T14:49:22.191Z,21.69
2019-05-20T14:51:50.600Z,21.99
2019-05-20T14:54:19.828Z,22.15
2019-05-20T14:56:48.238Z,22.37
2019-05-20T14:59:16.695Z,22.45
2019-05-20T15:01:45.103Z,22.11
2019-05-20T15:04:13.541Z,21.97
2019-05-20T15:06:41.947Z,22.04
2019-05-20T15:09:10.451Z,22.25
2019-05-20T15:11:39.138Z,22.44
2019-05-20T15:14:07.569Z,22.04
2019-05-20T15:16:35.994Z,21.83
2019-05-20T15:19:04.425Z,21.63
2019-05-20T15:21:32.847Z,21.50
2019-05-20T15:24:01.313Z,21.59
2019-05-20T15:26:30.097Z,21.79
2019-05-20T15:28:58.524Z,21.48
2019-05-20T15:31:26.942Z,21.43
2019-05-20T15:33:55.351Z,21.27
2019-05-20T15:36:24.050Z,21.41
2019-05-20T15:38:52.447Z,21.49
2019-05-20T15:41:20.899Z,21.30
2019-05-20T15:43:49.325Z,21.28
2019-05-20T15:46:17.749Z,21.07
2019-05-20T15:48:47.845Z,20.94
2019-05-20T15:51:16.190Z,20.66
2019-05-20T15:53:44.632Z,20.87
2019-05-20T15:56:13.058Z,20.83
2019-05-20T15:58:41.484Z,20.62
2019-05-20T16:01:09.918Z,20.47
2019-05-20T16:03:38.332Z,20.52
2019-05-20T16:06:06.760Z,20.27
2019-05-20T16:08:35.181Z,20.04
2019-05-20T16:11:06.664Z,20.09
2019-05-20T16:13:35.103Z,20.07
2019-05-20T16:16:03.902Z,19.01
2019-05-20T16:18:32.352Z,18.59
2019-05-20T16:21:00.829Z,18.24
2019-05-20T16:23:29.216Z,18.10
2019-05-20T16:25:57.647Z,18.03
2019-05-20T16:28:26.205Z,17.98
2019-05-20T16:30:54.653Z,17.98
2019-05-20T16:33:23.079Z,17.99
2019-05-20T16:35:51.579Z,17.96
2019-05-20T16:38:19.939Z,17.91
2019-05-20T16:40:48.394Z,17.74
2019-05-20T16:43:16.830Z,17.60
2019-05-20T16:45:45.472Z,17.42
2019-05-20T16:48:16.718Z,17.15
2019-05-20T16:50:47.377Z,16.77
2019-05-20T16:53:15.902Z,16.50
2019-05-20T16:55:44.653Z,16.34
2019-05-20T16:58:30.512Z,16.27
2019-05-20T17:01:03.122Z,16.08
2019-05-20T17:03:29.263Z,16.16
2019-05-20T17:05:57.740Z,16.16
2019-05-20T17:08:26.194Z,16.35
2019-05-20T17:10:54.793Z,15.98
2019-05-20T17:13:23.284Z,16.01
2019-05-20T17:15:51.749Z,16.06
2019-05-20T17:18:20.241Z,16.02
2019-05-20T17:20:50.744Z,15.87
2019-05-20T17:23:19.393Z,15.80
2019-05-20T17:25:52.015Z,15.88
2019-05-20T17:28:19.876Z,15.92
2019-05-20T17:30:48.396Z,15.91
2019-05-20T17:33:16.893Z,16.01
2019-05-20T17:35:45.342Z,16.07
2019-05-20T17:38:14.007Z,15.94
2019-05-20T17:40:42.591Z,15.88
2019-05-20T17:43:11.099Z,15.94
2019-05-20T17:45:39.686Z,15.93
2019-05-20T17:48:11.184Z,15.98
2019-05-20T17:50:39.597Z,15.95
2019-05-20T17:53:08.253Z,15.90
2019-05-20T17:55:36.775Z,15.81
2019-05-20T17:58:05.436Z,15.80
2019-05-20T18:00:33.889Z,15.91
2019-05-20T18:03:02.403Z,15.93
2019-05-20T18:05:31.001Z,15.98
2019-05-20T18:07:59.522Z,16.02
2019-05-20T18:10:28.036Z,16.20
2019-05-20T18:12:56.548Z,16.35
2019-05-20T18:15:24.990Z,16.20
2019-05-20T18:17:53.498Z,16.39
2019-05-20T18:20:22.179Z,16.29
2019-05-20T18:22:51.675Z,16.29
2019-05-20T18:25:20.140Z,16.39
2019-05-20T18:27:48.778Z,16.54
2019-05-20T18:30:17.454Z,16.13
2019-05-20T18:32:46.084Z,16.27
2019-05-20T18:35:19.399Z,16.50
2019-05-20T18:37:49.963Z,16.57
2019-05-20T18:40:19.286Z,16.38
2019-05-20T18:43:18.411Z,16.42
2019-05-20T18:45:46.922Z,16.34
2019-05-20T18:48:15.471Z,16.46
2019-05-20T18:50:47.375Z,16.38
2019-05-20T18:53:15.857Z,16.45
2019-05-20T18:55:44.471Z,16.48
2019-05-20T18:58:12.986Z,16.61
2019-05-20T19:00:41.558Z,16.64
2019-05-20T19:03:11.046Z,16.80
2019-05-20T19:05:39.540Z,16.92
2019-05-20T19:08:08.161Z,16.95
2019-05-20T19:10:36.689Z,17.04
2019-05-20T19:13:05.366Z,17.06
2019-05-20T19:15:33.915Z,17.10
2019-05-20T19:18:03.181Z,17.02
2019-05-20T19:20:31.612Z,17.04
2019-05-20T19:23:00.098Z,17.08
2019-05-20T19:25:37.376Z,17.08
2019-05-20T19:27:58.823Z,17.08
2019-05-20T19:30:27.253Z,17.04
2019-05-20T19:32:55.716Z,17.05
2019-05-20T19:35:25.278Z,17.07
2019-05-20T19:37:53.769Z,16.98
2019-05-20T19:40:22.326Z,17.09
2019-05-20T19:42:50.792Z,17.07
2019-05-20T19:45:19.291Z,16.90
2019-05-20T19:47:49.041Z,16.98
2019-05-20T19:50:17.570Z,17.06
2019-05-20T19:52:46.976Z,17.04
2019-05-20T19:55:18.589Z,17.09
2019-05-20T19:57:45.626Z,17.07
2019-05-20T20:00:16.522Z,17.08
2019-05-20T20:02:44.328Z,17.07
2019-05-20T20:05:14.071Z,17.01
2019-05-20T20:07:42.919Z,17.03
2019-05-20T20:10:12.358Z,17.05
2019-05-20T20:12:43.526Z,17.00
2019-05-20T20:15:21.150Z,17.03
2019-05-20T20:17:53.778Z,17.01
2019-05-20T20:20:22.234Z,16.99
2019-05-20T20:22:51.002Z,16.89
2019-05-20T20:25:19.607Z,16.92
2019-05-20T20:27:48.072Z,16.85
2019-05-20T20:30:16.862Z,16.75
2019-05-20T20:32:45.380Z,16.74
2019-05-20T20:35:14.113Z,16.68
2019-05-20T20:37:45.380Z,16.69
2019-05-20T20:40:15.017Z,16.61
2019-05-20T20:42:44.846Z,16.63
2019-05-20T20:45:14.476Z,16.60
2019-05-20T20:47:42.947Z,16.57
2019-05-20T20:50:13.313Z,16.60
2019-05-20T20:52:42.528Z,16.50
2019-05-20T20:55:11.128Z,16.55
2019-05-20T20:57:39.612Z,16.48
2019-05-20T21:00:11.076Z,16.48
2019-05-20T21:02:52.790Z,16.46
2019-05-20T21:05:12.092Z,16.36
2019-05-20T21:07:43.698Z,16.37
2019-05-20T21:10:12.304Z,16.39
2019-05-20T21:12:40.887Z,16.35
2019-05-20T21:15:10.754Z,16.28
2019-05-20T21:17:39.317Z,16.35
2019-05-20T21:20:09.613Z,16.31
2019-05-20T21:22:38.155Z,16.27
2019-05-20T21:25:10.394Z,16.29
2019-05-20T21:27:38.837Z,16.28
2019-05-20T21:30:08.528Z,16.17
2019-05-20T21:32:37.023Z,16.21
2019-05-20T21:35:09.620Z,16.17
2019-05-20T21:37:39.555Z,16.21
2019-05-20T21:40:08.662Z,16.18
2019-05-20T21:42:37.189Z,16.12
2019-05-20T21:45:06.994Z,16.09
2019-05-20T21:47:35.503Z,16.18
2019-05-20T21:50:04.885Z,16.12
2019-05-20T21:52:33.413Z,16.13
2019-05-20T21:55:04.036Z,16.07
2019-05-20T21:57:32.439Z,16.10
2019-05-20T22:00:00.931Z,16.09
2019-05-20T22:02:29.469Z,16.07
2019-05-20T22:04:57.877Z,15.96
2019-05-20T22:07:28.010Z,15.89
2019-05-20T22:09:56.480Z,15.90
2019-05-20T22:12:24.956Z,15.92
2019-05-20T22:14:53.490Z,15.90
2019-05-20T22:17:21.952Z,15.90
2019-05-20T22:19:50.571Z,15.90
2019-05-20T22:22:29.363Z,15.74
2019-05-20T22:24:57.845Z,15.85
2019-05-20T22:27:26.262Z,15.71
2019-05-20T22:29:54.704Z,15.57
2019-05-20T22:32:23.221Z,15.49
2019-05-20T22:34:53.910Z,15.52
2019-05-20T22:37:21.884Z,15.57
2019-05-20T22:39:50.376Z,15.55
2019-05-20T22:42:18.799Z,15.48
2019-05-20T22:44:48.554Z,15.39
2019-05-20T22:47:18.526Z,15.34
2019-05-20T22:49:46.976Z,15.33
2019-05-20T22:52:15.424Z,15.27
2019-05-20T22:54:43.926Z,15.20
2019-05-20T22:57:12.438Z,15.19
2019-05-20T22:59:40.890Z,15.22
2019-05-20T23:02:10.880Z,15.23
2019-05-20T23:04:42.334Z,15.15
2019-05-20T23:07:10.903Z,15.17
2019-05-20T23:09:39.347Z,15.12
2019-05-20T23:12:07.759Z,15.06
2019-05-20T23:14:36.201Z,14.97
2019-05-20T23:17:04.661Z,15.05
2019-05-20T23:19:33.115Z,15.03
2019-05-20T23:22:01.569Z,15.01
2019-05-20T23:24:30.041Z,14.96
2019-05-20T23:26:58.487Z,14.98
2019-05-20T23:29:26.926Z,14.93
2019-05-20T23:31:55.378Z,14.96
2019-05-20T23:34:23.850Z,14.99
2019-05-20T23:36:52.302Z,14.88
2019-05-20T23:39:20.766Z,14.89
2019-05-20T23:41:49.255Z,14.86
2019-05-20T23:44:17.701Z,14.89
2019-05-20T23:46:46.148Z,14.89
2019-05-20T23:49:14.592Z,14.87
2019-05-20T23:51:43.094Z,14.84
2019-05-20T23:54:11.571Z,14.85
2019-05-20T23:56:40.024Z,14.78
2019-05-20T23:59:09.994Z,14.80
